createdAt,value
2022-09-05T00:02:29.135Z,19.40
2022-09-05T00:05:01.155Z,19.40
2022-09-05T00:07:57.712Z,19.30
2022-09-05T00:10:22.993Z,19.30
2022-09-05T00:13:06.945Z,19.30
2022-09-05T00:15:40.103Z,19.30
2022-09-05T00:22:00.698Z,19.30
2022-09-05T00:24:29.055Z,19.30
2022-09-05T00:24:34.503Z,19.20
2022-09-05T00:27:06.854Z,19.20
2022-09-05T00:31:04.006Z,19.20
2022-09-05T00:32:39.521Z,19.10
2022-09-05T00:35:16.832Z,19.10
2022-09-05T00:37:46.320Z,19.10
2022-09-05T00:40:18.541Z,19.10
2022-09-05T00:42:48.753Z,19.10
2022-09-05T00:45:19.856Z,19.10
2022-09-05T00:47:49.763Z,19.10
2022-09-05T00:50:21.786Z,19.10
2022-09-05T00:53:07.435Z,19.10
2022-09-05T00:55:40.231Z,19.10
2022-09-05T00:58:34.645Z,19.10
2022-09-05T01:01:21.010Z,19.10
2022-09-05T01:03:54.263Z,19.00
2022-09-05T01:06:28.641Z,19.10
2022-09-05T01:09:08.173Z,19.00
2022-09-05T01:11:43.503Z,19.00
2022-09-05T01:14:17.705Z,19.00
2022-09-05T01:16:59.048Z,19.00
2022-09-05T01:19:31.500Z,19.00
2022-09-05T01:22:09.009Z,19.00
2022-09-05T01:24:42.599Z,19.00
2022-09-05T01:27:29.387Z,19.00
2022-09-05T01:30:12.181Z,18.90
2022-09-05T01:32:42.643Z,18.90
2022-09-05T01:35:40.343Z,18.80
2022-09-05T01:38:24.685Z,18.80
2022-09-05T01:41:01.252Z,18.80
2022-09-05T01:44:03.643Z,18.80
2022-09-05T01:46:36.487Z,18.80
2022-09-05T01:49:10.028Z,18.80
2022-09-05T01:51:41.055Z,18.80
2022-09-05T01:54:24.022Z,18.80
2022-09-05T01:57:00.685Z,18.70
2022-09-05T01:59:34.505Z,18.70
2022-09-05T02:02:13.917Z,18.70
2022-09-05T02:04:55.346Z,18.70
2022-09-05T02:07:30.978Z,18.70
2022-09-05T02:10:07.679Z,18.70
2022-09-05T02:12:41.011Z,18.70
2022-09-05T02:15:14.441Z,18.70
2022-09-05T02:17:51.244Z,18.60
2022-09-05T02:20:23.711Z,18.60
2022-09-05T02:22:54.780Z,18.60
2022-09-05T02:26:01.660Z,18.60
2022-09-05T02:28:15.277Z,18.50
2022-09-05T02:31:18.915Z,18.60
2022-09-05T02:33:37.078Z,18.50
2022-09-05T02:36:06.888Z,18.50
2022-09-05T02:40:48.410Z,18.50
2022-09-05T02:45:09.338Z,18.50
2022-09-05T02:45:10.558Z,18.50
2022-09-05T02:47:22.452Z,18.50
2022-09-05T02:52:07.371Z,18.50
2022-09-05T02:57:28.215Z,18.40
2022-09-05T02:57:37.803Z,18.40
2022-09-05T02:58:53.282Z,18.40
2022-09-05T03:01:26.079Z,18.40
2022-09-05T03:03:58.663Z,18.30
2022-09-05T03:06:34.891Z,18.30
2022-09-05T03:09:17.715Z,18.30
2022-09-05T03:11:59.907Z,18.30
2022-09-05T03:14:50.334Z,18.20
2022-09-05T03:17:34.043Z,18.20
2022-09-05T03:20:16.606Z,18.20
2022-09-05T03:23:08.356Z,18.20
2022-09-05T03:25:50.937Z,18.20
2022-09-05T03:28:33.974Z,18.20
2022-09-05T03:31:22.145Z,18.20
2022-09-05T03:34:08.100Z,18.20
2022-09-05T03:36:50.706Z,18.10
2022-09-05T03:39:43.366Z,18.10
2022-09-05T03:42:20.841Z,18.10
2022-09-05T03:45:01.763Z,18.10
2022-09-05T03:47:45.739Z,18.10
2022-09-05T03:57:04.802Z,18.10
2022-09-05T03:57:23.791Z,18.00
2022-09-05T03:57:24.063Z,18.10
2022-09-05T03:59:26.377Z,18.10
2022-09-05T04:05:49.643Z,18.10
2022-09-05T04:08:24.042Z,18.10
2022-09-05T04:08:28.964Z,18.10
2022-09-05T04:10:32.179Z,18.10
2022-09-05T04:13:02.484Z,18.00
2022-09-05T04:15:33.679Z,18.00
2022-09-05T04:18:04.395Z,18.00
2022-09-05T04:20:40.472Z,18.00
2022-09-05T04:23:13.835Z,18.00
2022-09-05T04:25:49.147Z,17.90
2022-09-05T04:28:32.945Z,18.00
2022-09-05T04:31:04.296Z,17.90
2022-09-05T04:33:37.335Z,17.80
2022-09-05T04:36:17.802Z,17.80
2022-09-05T04:38:46.575Z,17.80
2022-09-05T04:41:15.263Z,17.70
2022-09-05T04:43:45.197Z,17.70
2022-09-05T04:46:19.547Z,17.80
2022-09-05T04:48:51.690Z,17.70
2022-09-05T04:51:39.647Z,17.70
2022-09-05T04:54:27.610Z,17.70
2022-09-05T04:57:02.617Z,17.80
2022-09-05T05:04:38.134Z,17.80
2022-09-05T05:06:08.226Z,17.80
2022-09-05T05:06:12.238Z,17.80
2022-09-05T05:08:31.758Z,17.70
2022-09-05T05:17:54.028Z,17.70
2022-09-05T05:17:59.391Z,17.70
2022-09-05T05:18:09.595Z,17.70
2022-09-05T05:19:41.456Z,17.70
2022-09-05T05:22:15.102Z,17.80
2022-09-05T05:24:45.877Z,17.80
2022-09-05T05:27:21.153Z,17.80
2022-09-05T05:29:50.196Z,17.80
2022-09-05T05:32:31.629Z,17.80
2022-09-05T05:35:09.800Z,17.80
2022-09-05T05:37:39.196Z,17.80
2022-09-05T05:40:11.329Z,17.80
2022-09-05T05:42:40.685Z,17.80
2022-09-05T05:45:16.824Z,17.80
2022-09-05T05:47:45.833Z,17.90
2022-09-05T05:50:19.641Z,17.90
2022-09-05T05:52:55.249Z,17.90
2022-09-05T05:55:51.760Z,17.90
2022-09-05T05:58:39.557Z,17.90
2022-09-05T06:01:36.950Z,17.90
2022-09-05T06:04:44.826Z,17.90
2022-09-05T06:07:20.340Z,17.90
2022-09-05T06:14:50.712Z,18.00
2022-09-05T06:15:01.766Z,18.00
2022-09-05T06:16:09.937Z,18.00
2022-09-05T06:19:01.357Z,18.10
2022-09-05T06:22:10.529Z,18.10
2022-09-05T06:24:58.824Z,18.10
2022-09-05T06:28:17.545Z,18.20
2022-09-05T06:30:45.234Z,18.20
2022-09-05T06:33:20.538Z,18.30
2022-09-05T06:35:59.018Z,18.30
2022-09-05T06:38:40.214Z,18.40
2022-09-05T06:41:15.196Z,18.40
2022-09-05T06:43:49.824Z,18.40
2022-09-05T06:46:54.743Z,18.40
2022-09-05T06:49:30.302Z,18.40
2022-09-05T06:52:30.181Z,18.50
2022-09-05T06:55:27.985Z,18.50
2022-09-05T06:58:14.314Z,18.60
2022-09-05T07:00:46.126Z,18.60
2022-09-05T07:03:24.026Z,18.60
2022-09-05T07:05:56.694Z,18.60
2022-09-05T07:08:36.263Z,18.60
2022-09-05T07:11:15.737Z,18.70
2022-09-05T07:13:55.165Z,18.70
2022-09-05T07:16:37.457Z,18.70
2022-09-05T07:19:14.462Z,18.80
2022-09-05T07:21:46.566Z,18.70
2022-09-05T07:24:23.550Z,18.80
2022-09-05T07:27:08.996Z,18.80
2022-09-05T07:29:38.542Z,18.80
2022-09-05T07:32:08.041Z,18.80
2022-09-05T07:34:38.481Z,18.80
2022-09-05T07:37:15.015Z,18.80
2022-09-05T07:39:46.698Z,18.80
2022-09-05T07:42:15.807Z,18.80
2022-09-05T07:44:47.076Z,18.90
2022-09-05T07:47:20.368Z,18.90
2022-09-05T07:50:42.855Z,18.90
2022-09-05T07:56:50.434Z,18.90
2022-09-05T07:57:03.982Z,18.90
2022-09-05T07:58:19.730Z,19.00
2022-09-05T08:00:52.046Z,19.00
2022-09-05T08:03:24.144Z,19.00
2022-09-05T08:05:53.995Z,19.00
2022-09-05T08:08:23.781Z,19.00
2022-09-05T08:11:24.878Z,19.10
2022-09-05T08:14:21.893Z,19.10
2022-09-05T08:16:44.423Z,19.10
2022-09-05T08:19:28.600Z,19.20
2022-09-05T08:21:58.997Z,19.20
2022-09-05T08:24:28.257Z,19.20
2022-09-05T08:27:00.993Z,19.20
2022-09-05T08:29:32.537Z,19.30
2022-09-05T08:32:03.767Z,19.30
2022-09-05T08:34:44.557Z,19.30
2022-09-05T08:37:21.126Z,19.30
2022-09-05T08:39:51.315Z,19.40
2022-09-05T08:42:39.834Z,19.40
2022-09-05T08:46:45.101Z,19.40
2022-09-05T08:48:11.691Z,19.40
2022-09-05T08:50:45.764Z,19.40
2022-09-05T08:53:45.765Z,19.40
2022-09-05T08:56:12.520Z,19.40
2022-09-05T08:59:28.099Z,19.50
2022-09-05T09:02:44.883Z,19.50
2022-09-05T09:05:01.359Z,19.50
2022-09-05T09:07:51.478Z,19.50
2022-09-05T09:10:27.104Z,19.50
2022-09-05T09:13:07.008Z,19.50
2022-09-05T09:15:39.107Z,19.60
2022-09-05T09:18:12.133Z,19.60
2022-09-05T09:20:45.933Z,19.60
2022-09-05T09:23:32.305Z,19.60
2022-09-05T09:26:11.472Z,19.60
2022-09-05T09:28:52.074Z,19.60
2022-09-05T09:31:24.038Z,19.60
2022-09-05T09:33:58.292Z,19.60
2022-09-05T09:36:39.554Z,19.60
2022-09-05T09:39:37.720Z,19.60
2022-09-05T09:42:06.155Z,19.70
2022-09-05T09:44:58.003Z,19.70
2022-09-05T09:47:36.867Z,19.80
2022-09-05T09:50:34.747Z,19.80
2022-09-05T09:53:23.505Z,19.80
2022-09-05T09:56:07.083Z,19.80
2022-09-05T09:59:04.462Z,19.90
2022-09-05T10:01:37.326Z,19.90
2022-09-05T10:09:28.768Z,19.90
2022-09-05T10:10:47.949Z,19.90
2022-09-05T10:10:53.340Z,20.00
2022-09-05T10:13:22.083Z,20.00
2022-09-05T10:16:09.513Z,20.00
2022-09-05T10:18:54.446Z,20.00
2022-09-05T10:21:34.174Z,20.10
2022-09-05T10:24:26.133Z,20.10
2022-09-05T10:27:06.474Z,20.10
2022-09-05T10:29:43.034Z,20.10
2022-09-05T10:35:07.670Z,20.20
2022-09-05T10:35:22.333Z,20.20
2022-09-05T10:37:54.870Z,20.20
2022-09-05T10:40:23.415Z,20.20
2022-09-05T10:42:58.139Z,20.30
2022-09-05T10:45:38.440Z,20.30
2022-09-05T10:48:13.704Z,20.30
2022-09-05T10:50:43.622Z,20.40
2022-09-05T10:53:21.149Z,20.40
2022-09-05T10:55:56.530Z,20.40
2022-09-05T10:59:19.123Z,20.50
2022-09-05T11:02:29.925Z,20.50
2022-09-05T11:04:27.453Z,20.50
2022-09-05T11:06:57.085Z,20.50
2022-09-05T11:09:27.309Z,20.50
2022-09-05T11:12:01.595Z,20.50
2022-09-05T11:14:36.497Z,20.60
2022-09-05T11:17:09.926Z,20.60
2022-09-05T11:19:41.940Z,20.60
2022-09-05T11:22:22.791Z,20.60
2022-09-05T11:24:55.520Z,20.70
2022-09-05T11:27:27.908Z,20.70
2022-09-05T11:29:58.489Z,20.70
2022-09-05T11:39:46.070Z,20.80
2022-09-05T11:39:51.148Z,20.70
2022-09-05T11:40:05.032Z,20.80
2022-09-05T11:41:35.772Z,20.80
2022-09-05T11:44:25.649Z,20.90
2022-09-05T11:47:28.335Z,20.90
2022-09-05T11:50:10.405Z,20.90
2022-09-05T11:52:57.359Z,20.90
2022-09-05T11:55:38.525Z,21.00
2022-09-05T11:58:45.019Z,21.10
2022-09-05T12:01:41.286Z,21.10
2022-09-05T12:04:24.254Z,21.20
2022-09-05T12:07:15.610Z,21.10
2022-09-05T12:09:57.713Z,21.20
2022-09-05T12:12:38.705Z,21.20
2022-09-05T12:15:25.219Z,21.30
2022-09-05T12:17:58.273Z,21.30
2022-09-05T12:20:33.671Z,21.40
2022-09-05T12:23:17.261Z,21.40
2022-09-05T12:27:39.696Z,21.50
2022-09-05T12:29:26.836Z,21.60
2022-09-05T12:32:34.320Z,21.70
2022-09-05T12:36:09.705Z,21.70
2022-09-05T12:40:55.751Z,21.80
2022-09-05T12:41:36.125Z,21.90
2022-09-05T12:44:37.893Z,22.00
2022-09-05T12:46:18.820Z,22.00
2022-09-05T12:48:54.150Z,22.00
2022-09-05T12:51:45.112Z,22.10
2022-09-05T12:54:33.779Z,22.10
2022-09-05T12:57:47.604Z,22.10
2022-09-05T13:03:02.746Z,22.20
2022-09-05T13:03:13.668Z,22.30
2022-09-05T13:05:46.147Z,22.30
2022-09-05T13:08:21.582Z,22.40
2022-09-05T13:14:49.785Z,22.50
2022-09-05T13:15:08.030Z,22.50
2022-09-05T13:16:36.147Z,22.60
2022-09-05T13:19:07.379Z,22.60
2022-09-05T13:21:36.943Z,22.70
2022-09-05T13:24:06.603Z,22.80
2022-09-05T13:26:36.680Z,22.80
2022-09-05T13:29:13.063Z,22.80
2022-09-05T13:38:08.025Z,22.90
2022-09-05T13:38:11.402Z,23.00
2022-09-05T13:38:28.826Z,22.90
2022-09-05T13:40:28.924Z,23.00
2022-09-05T13:42:59.363Z,23.10
2022-09-05T13:45:27.198Z,23.20
2022-09-05T13:48:01.808Z,23.40
2022-09-05T13:50:32.201Z,24.00
2022-09-05T13:53:02.785Z,24.70
2022-09-05T13:55:36.326Z,25.50
2022-09-05T13:58:07.586Z,26.30
2022-09-05T14:00:51.076Z,27.10
2022-09-05T14:03:50.284Z,27.70
2022-09-05T14:06:45.156Z,28.30
2022-09-05T14:09:40.121Z,28.80
2022-09-05T14:12:12.365Z,29.00
2022-09-05T14:17:51.022Z,29.10
2022-09-05T14:20:37.366Z,28.80
2022-09-05T14:23:08.758Z,28.80
2022-09-05T14:25:39.576Z,28.90
2022-09-05T14:28:08.897Z,29.00
2022-09-05T14:33:11.064Z,29.20
2022-09-05T14:37:40.626Z,29.50
2022-09-05T14:37:52.922Z,29.30
2022-09-05T14:39:32.143Z,29.70
2022-09-05T14:42:21.205Z,29.70
2022-09-05T14:45:04.252Z,29.80
2022-09-05T14:47:49.341Z,29.80
2022-09-05T14:55:55.102Z,28.70
2022-09-05T15:02:41.795Z,28.10
2022-09-05T15:02:52.914Z,27.60
2022-09-05T15:04:56.754Z,27.40
2022-09-05T15:07:28.853Z,27.20
2022-09-05T15:12:17.889Z,27.20
2022-09-05T15:13:02.975Z,27.30
2022-09-05T15:15:31.697Z,27.30
2022-09-05T15:18:01.093Z,27.60
2022-09-05T15:20:33.448Z,27.90
2022-09-05T15:23:11.319Z,28.10
2022-09-05T15:25:46.325Z,28.40
2022-09-05T15:28:21.426Z,28.50
2022-09-05T15:30:57.173Z,28.60
2022-09-05T15:33:41.083Z,28.70
2022-09-05T15:36:19.245Z,28.90
2022-09-05T15:38:56.166Z,28.80
2022-09-05T15:41:26.244Z,28.40
2022-09-05T15:43:59.739Z,27.90
2022-09-05T15:46:34.250Z,27.50
2022-09-05T15:49:03.989Z,27.20
2022-09-05T15:51:42.534Z,27.10
2022-09-05T15:54:12.408Z,27.20
2022-09-05T15:56:57.318Z,27.30
2022-09-05T15:59:30.294Z,27.40
2022-09-05T16:02:00.979Z,27.40
2022-09-05T16:09:37.255Z,27.40
2022-09-05T16:10:37.976Z,27.20
2022-09-05T16:10:49.319Z,27.30
2022-09-05T16:12:56.224Z,27.20
2022-09-05T16:18:45.657Z,27.10
2022-09-05T16:23:16.225Z,26.80
2022-09-05T16:23:28.530Z,26.60
2022-09-05T16:24:06.978Z,26.50
2022-09-05T16:26:39.973Z,26.40
2022-09-05T16:29:11.372Z,26.40
2022-09-05T16:31:42.860Z,26.40
2022-09-05T16:34:16.803Z,26.30
2022-09-05T16:37:08.217Z,26.30
2022-09-05T16:39:38.029Z,26.20
2022-09-05T16:42:12.512Z,26.10
2022-09-05T16:44:43.109Z,26.00
2022-09-05T16:47:14.164Z,25.90
2022-09-05T16:49:46.579Z,25.80
2022-09-05T16:52:17.226Z,25.70
2022-09-05T16:54:49.020Z,25.70
2022-09-05T16:57:18.183Z,25.50
2022-09-05T16:59:46.867Z,25.40
2022-09-05T17:02:23.004Z,25.30
2022-09-05T17:05:05.102Z,25.20
2022-09-05T17:07:44.124Z,25.10
2022-09-05T17:10:13.094Z,25.00
2022-09-05T17:12:41.698Z,24.90
2022-09-05T17:15:11.053Z,24.80
2022-09-05T17:18:20.067Z,24.70
2022-09-05T17:20:39.325Z,24.70
2022-09-05T17:26:45.466Z,24.50
2022-09-05T17:29:26.604Z,24.50
2022-09-05T17:29:32.962Z,24.40
2022-09-05T17:31:55.897Z,24.30
2022-09-05T17:34:43.932Z,24.20
2022-09-05T17:37:29.694Z,24.20
2022-09-05T17:40:03.990Z,24.10
2022-09-05T17:42:38.940Z,24.00
2022-09-05T17:45:10.788Z,23.90
2022-09-05T17:47:46.183Z,23.90
2022-09-05T17:50:15.737Z,23.80
2022-09-05T17:53:26.394Z,23.70
2022-09-05T17:56:12.392Z,23.70
2022-09-05T17:59:01.262Z,23.60
2022-09-05T18:01:32.330Z,23.60
2022-09-05T18:04:16.790Z,23.50
2022-09-05T18:06:59.547Z,23.40
2022-09-05T18:10:05.967Z,23.40
2022-09-05T18:15:44.365Z,23.30
2022-09-05T18:19:28.441Z,23.20
2022-09-05T18:21:22.519Z,23.20
2022-09-05T18:23:54.775Z,23.10
2022-09-05T18:26:24.486Z,23.00
2022-09-05T18:28:56.859Z,23.10
2022-09-05T18:31:46.757Z,23.00
2022-09-05T18:34:38.257Z,23.00
2022-09-05T18:37:23.011Z,22.90
2022-09-05T18:40:06.087Z,22.90
2022-09-05T18:42:37.194Z,22.90
2022-09-05T18:45:14.604Z,22.80
2022-09-05T18:47:51.281Z,22.80
2022-09-05T18:50:28.072Z,22.70
2022-09-05T18:53:10.189Z,22.70
2022-09-05T18:56:13.599Z,22.70
2022-09-05T18:58:51.869Z,22.70
2022-09-05T19:01:28.732Z,22.60
2022-09-05T19:03:58.725Z,22.60
2022-09-05T19:06:35.155Z,22.60
2022-09-05T19:09:07.369Z,22.60
2022-09-05T19:11:38.656Z,22.60
2022-09-05T19:14:29.054Z,22.50
2022-09-05T19:17:03.237Z,22.50
2022-09-05T19:19:50.154Z,22.40
2022-09-05T19:23:10.280Z,22.40
2022-09-05T19:25:30.919Z,22.30
2022-09-05T19:33:50.494Z,22.30
2022-09-05T19:36:46.028Z,22.30
2022-09-05T19:37:04.608Z,22.30
2022-09-05T19:37:13.089Z,22.30
2022-09-05T19:43:31.087Z,22.20
2022-09-05T19:47:30.782Z,22.20
2022-09-05T19:47:47.234Z,22.20
2022-09-05T19:48:04.346Z,22.20
2022-09-05T19:50:34.839Z,22.20
2022-09-05T19:53:06.841Z,22.10
2022-09-05T19:55:36.493Z,22.10
2022-09-05T19:58:19.034Z,22.00
2022-09-05T20:01:01.681Z,21.80
2022-09-05T20:03:34.562Z,22.10
2022-09-05T20:06:28.680Z,22.00
2022-09-05T20:09:08.341Z,22.00
2022-09-05T20:11:45.103Z,22.00
2022-09-05T20:14:18.092Z,22.00
2022-09-05T20:16:49.870Z,21.90
2022-09-05T20:19:25.532Z,22.00
2022-09-05T20:21:58.100Z,21.90
2022-09-05T20:24:25.950Z,21.90
2022-09-05T20:26:53.655Z,21.80
2022-09-05T20:29:50.833Z,21.70
2022-09-05T20:32:18.353Z,21.80
2022-09-05T20:36:11.754Z,21.80
2022-09-05T20:43:14.981Z,21.70
2022-09-05T20:43:15.405Z,21.80
2022-09-05T20:43:52.517Z,21.60
2022-09-05T20:50:38.639Z,21.70
2022-09-05T20:54:07.503Z,21.70
2022-09-05T20:54:18.673Z,21.60
2022-09-05T20:54:58.495Z,21.60
2022-09-05T20:57:46.195Z,21.60
2022-09-05T21:00:16.077Z,21.50
2022-09-05T21:02:51.366Z,21.60
2022-09-05T21:05:24.866Z,21.50
2022-09-05T21:08:06.759Z,21.50
2022-09-05T21:10:35.278Z,21.40
2022-09-05T21:13:24.350Z,21.40
2022-09-05T21:15:54.224Z,21.40
2022-09-05T21:18:23.242Z,21.40
2022-09-05T21:20:55.851Z,21.40
2022-09-05T21:23:28.118Z,21.40
2022-09-05T21:25:56.681Z,21.40
2022-09-05T21:28:32.673Z,21.30
2022-09-05T21:31:10.684Z,21.30
2022-09-05T21:33:45.515Z,21.30
2022-09-05T21:36:15.934Z,21.30
2022-09-05T21:38:44.217Z,21.20
2022-09-05T21:41:15.857Z,21.20
2022-09-05T21:47:41.524Z,21.20
2022-09-05T21:47:46.313Z,21.30
2022-09-05T21:49:21.124Z,21.20
2022-09-05T21:51:51.718Z,21.20
2022-09-05T21:59:16.247Z,21.20
2022-09-05T21:59:28.369Z,21.10
2022-09-05T22:00:07.130Z,21.10
2022-09-05T22:02:39.207Z,21.10
2022-09-05T22:05:07.094Z,21.00
2022-09-05T22:07:37.225Z,21.00
2022-09-05T22:10:06.451Z,21.00
2022-09-05T22:12:35.793Z,21.00
2022-09-05T22:15:26.907Z,21.00
2022-09-05T22:17:54.196Z,20.90
2022-09-05T22:20:26.164Z,20.90
2022-09-05T22:22:56.537Z,20.90
2022-09-05T22:25:28.078Z,20.90
2022-09-05T22:27:58.589Z,20.90
2022-09-05T22:30:28.293Z,20.90
2022-09-05T22:32:56.023Z,20.90
2022-09-05T22:35:28.677Z,20.80
2022-09-05T22:38:07.028Z,20.80
2022-09-05T22:40:37.483Z,20.80
2022-09-05T22:43:06.217Z,20.80
2022-09-05T22:45:34.738Z,20.80
2022-09-05T22:48:07.280Z,20.70
2022-09-05T22:50:35.050Z,20.70
2022-09-05T22:53:06.888Z,20.60
2022-09-05T22:55:34.859Z,20.70
2022-09-05T22:58:02.977Z,20.70
2022-09-05T23:00:30.753Z,20.70
2022-09-05T23:02:58.852Z,20.60
2022-09-05T23:05:26.873Z,20.60
2022-09-05T23:07:57.818Z,20.60
2022-09-05T23:10:27.338Z,20.60
2022-09-05T23:12:55.406Z,20.60
2022-09-05T23:15:23.132Z,20.70
2022-09-05T23:17:53.807Z,20.60
2022-09-05T23:20:21.521Z,20.60
2022-09-05T23:22:49.254Z,20.60
2022-09-05T23:25:17.276Z,20.80
2022-09-05T23:27:46.348Z,20.60
2022-09-05T23:30:14.106Z,20.50
2022-09-05T23:32:44.641Z,20.50
2022-09-05T23:35:12.344Z,20.50
2022-09-05T23:37:43.121Z,20.50
2022-09-05T23:40:11.359Z,20.50
2022-09-05T23:42:39.539Z,20.40
2022-09-05T23:45:09.588Z,20.40
2022-09-05T23:47:37.311Z,20.40
2022-09-05T23:50:05.659Z,20.30
2022-09-05T23:52:38.367Z,20.40
2022-09-05T23:55:06.517Z,20.40
2022-09-05T23:57:34.216Z,20.30
